Flight Track Log - Related Links

Times and Time Zones

All times are in EDT time to prevent confusion due to time zone crossing. See the N435HP flight status page for this flight to view local times or setup timezone preferences in your user account.

Time Position Orientation Groundspeed Altitude Reporting Facility
EDT Latitude Longitude Course Direction KTS MPH feet Rate Location/Type
Tue 07:31:51 AM 29.9561 -95.3431 28° Northeast 98 113 700  Level Houston Center
Tue 07:33:22 AM 30.0006 -95.3161 19° North 128 147 2,000 699 Climbing Houston Center
Tue 07:34:17 AM 30.0344 -95.3028 25° Northeast 150 173 2,400 417 Climbing Houston Center
Tue 07:35:17 AM 30.0767 -95.2803 11° North 165 190 2,800 397 Climbing Houston Center
Tue 07:36:18 AM 30.1231 -95.2700 17° North 175 201 3,200 466 Climbing Houston Center
Tue 07:37:13 AM 30.1650 -95.2547 14° North 170 196 3,700 472 Climbing Houston Center
Tue 07:38:25 AM 30.2239 -95.2375 16° North 174 200 4,200 451 Climbing Houston Center
Tue 07:39:26 AM 30.2703 -95.2222 13° North 175 201 4,700 491 Climbing Houston Center
Tue 07:40:15 AM 30.3103 -95.2117 18° North 179 206 5,100 504 Climbing Houston Center
Tue 07:41:25 AM 30.3692 -95.1897 15° North 184 212 5,700 462 Climbing Houston Center
Tue 07:42:25 AM 30.4178 -95.1744 23° Northeast 184 212 6,100 446 Climbing Houston Center
Tue 07:43:26 AM 30.4683 -95.1497 27° Northeast 189 217 6,600 450 Climbing Houston Center
Tue 07:44:25 AM 30.5150 -95.1222 31° Northeast 189 217 7,000 403 Climbing Houston Center
Tue 07:45:25 AM 30.5575 -95.0925 29° Northeast 184 212 7,400 397 Climbing Houston Center
Tue 07:46:26 AM 30.6042 -95.0628 31° Northeast 184 212 7,800 450 Climbing Houston Center
Tue 07:47:25 AM 30.6467 -95.0328 29° Northeast 179 206 8,300 454 Climbing Houston Center
Tue 07:48:25 AM 30.6933 -95.0031 30° Northeast 179 206 8,700 347 Climbing Houston Center
Tue 07:49:26 AM 30.7378 -94.9731 30° Northeast 179 206 9,000 149 Climbing Houston Center
Tue 07:50:26 AM 30.7867 -94.9408 31° Northeast 185 213 9,000  Level Houston Center
Tue 07:51:25 AM 30.8333 -94.9083 28° Northeast 190 219 9,000  Level Houston Center
Tue 07:52:25 AM 30.8819 -94.8786 31° Northeast 190 219 9,000  Level Houston Center
Tue 07:53:26 AM 30.9286 -94.8461 30° Northeast 190 219 9,000  Level Houston Center
Tue 07:54:25 AM 30.9731 -94.8161 29° Northeast 190 219 9,000  Level Houston Center
Tue 07:55:58 AM 31.0397 -94.7731 29° Northeast 199 229 9,000  Level Fort Worth Center
Tue 07:56:58 AM 31.0869 -94.7428 31° Northeast 194 223 9,000  Level Fort Worth Center
Tue 07:57:58 AM 31.1342 -94.7097 30° Northeast 194 223 9,000  Level Fort Worth Center
Tue 07:58:58 AM 31.1794 -94.6794 31° Northeast 194 223 9,000  Level Fort Worth Center
Tue 07:59:58 AM 31.2331 -94.6414 29° Northeast 194 223 9,000  Level Fort Worth Center
Tue 08:00:58 AM 31.2803 -94.6108 29° Northeast 194 223 9,000  Level Fort Worth Center
Tue 08:01:58 AM 31.3278 -94.5803 29° Northeast 194 223 9,000  Level Fort Worth Center
Tue 08:02:58 AM 31.3750 -94.5494 31° Northeast 194 223 9,000  Level Fort Worth Center
Tue 08:03:58 AM 31.4222 -94.5164 29° Northeast 194 223 9,000  Level Fort Worth Center
Tue 08:04:58 AM 31.4697 -94.4858 31° Northeast 194 223 9,000  Level Fort Worth Center
Tue 08:05:58 AM 31.5169 -94.4525 30° Northeast 194 223 9,000  Level Fort Worth Center
Tue 08:06:58 AM 31.5661 -94.4194 30° Northeast 194 223 9,000  Level Fort Worth Center
Tue 08:07:58 AM 31.6114 -94.3886 29° Northeast 194 223 9,000  Level Fort Worth Center
Tue 08:08:58 AM 31.6586 -94.3578 31° Northeast 194 223 9,000  Level Fort Worth Center
Tue 08:09:58 AM 31.7058 -94.3244 36° Northeast 194 223 9,000 -64 Level Fort Worth Center
Tue 08:10:32 AM 31.7264 -94.3067 30° Northeast 195 224 8,900 -300 Descending Fort Worth Center
Tue 08:11:38 AM 31.7836 -94.2681 28° Northeast 202 232 8,500 -378 Descending Fort Worth Center
Tue 08:12:39 AM 31.8331 -94.2369 30° Northeast 205 236 8,100 -393 Descending Fort Worth Center
Tue 08:13:40 AM 31.8822 -94.2036 31° Northeast 203 234 7,700 -397 Descending Fort Worth Center
Tue 08:14:40 AM 31.9294 -94.1700 28° Northeast 201 231 7,300 -397 Descending Fort Worth Center
Tue 08:15:41 AM 31.9789 -94.1389 33° Northeast 202 232 6,900 -446 Descending Fort Worth Center
Tue 08:16:41 AM 32.0300 -94.1003 31° Northeast 204 235 6,400 -446 Descending Fort Worth Center
Tue 08:17:42 AM 32.0811 -94.0642 29° Northeast 209 241 6,000 -443 Descending Fort Worth Center
Tue 08:18:43 AM 32.1325 -94.0303 28° Northeast 213 245 5,500 -496 Descending Fort Worth Center
Tue 08:19:43 AM 32.1858 -93.9964 29° Northeast 214 246 5,000 -496 Descending Fort Worth Center
Tue 08:20:44 AM 32.2372 -93.9628 13° North 216 249 4,500 -516 Descending Fort Worth Center
Tue 08:21:51 AM 32.3033 -93.9453 15° North 216 249 3,900 -520 Descending Fort Worth Center
Tue 08:22:51 AM 32.3633 -93.9258 12° North 218 251 3,400 -446 Descending Fort Worth Center
Tue 08:23:52 AM 32.4194 -93.9114 15° North 213 245 3,000 -197 Descending Fort Worth Center
Tue 08:24:53 AM 32.4711 -93.8947 27° Northeast 197 227 3,000 -298 Level Fort Worth Center
Tue 08:25:53 AM 32.5225 -93.8631 47° Northeast 210 242 2,400 -574 Descending Fort Worth Center
Tue 08:26:48 AM 32.5586 -93.8172 76° East 200 230 1,900 -783 Descending Fort Worth Center
Tue 08:27:48 AM 32.5678 -93.7750 76° East 152 175 900 -1,000 Descending Fort Worth Center

Login

Don't have an account? Register now (free) for customized features, flight alerts, and more!